Time;durP1;ratioP1;P1;durP2;ratioP2;P2;SDS_P1;SDS_P2;PMS_P1;PMS_P2;Temp;Humidity;BMP_temperature;BMP_pressure;BME280_temperature;BME280_humidity;BME280_pressure;Samples;Min_cycle;Max_cycle;Signal;HPM_P1;HPM_P2
2022/03/28 00:00:46;;;;;;;0.30;0.20;;;;;;;10.03;48.65;96408.47;5092185;28;20432;-53
2022/03/28 00:03:15;;;;;;;0.30;0.20;;;;;;;10.11;48.26;96410.72;5092067;28;20474;-53
2022/03/28 00:05:44;;;;;;;2.07;0.30;;;;;;;10.06;48.61;96412.47;5092429;28;21078;-53
2022/03/28 00:08:13;;;;;;;0.30;0.20;;;;;;;10.11;48.02;96416.03;5091904;28;20472;-53
2022/03/28 00:10:41;;;;;;;0.30;0.20;;;;;;;10.11;48.15;96410.72;5091859;28;20428;-54
2022/03/28 00:13:11;;;;;;;0.30;0.20;;;;;;;10.09;48.35;96412.00;5091959;28;20485;-54
2022/03/28 00:15:40;;;;;;;0.50;0.50;;;;;;;10.07;49.34;96408.75;5091813;28;20555;-53
2022/03/28 00:18:10;;;;;;;1.27;1.10;;;;;;;10.05;49.11;96401.06;5092088;28;20485;-56
2022/03/28 00:20:39;;;;;;;0.30;0.20;;;;;;;10.10;48.44;96403.81;5091845;28;20424;-54
2022/03/28 00:23:07;;;;;;;0.40;0.40;;;;;;;10.02;48.83;96400.72;5091341;28;20428;-53
2022/03/28 00:25:36;;;;;;;0.40;0.30;;;;;;;9.98;48.96;96399.63;5091726;28;20436;-54
2022/03/28 00:28:05;;;;;;;0.30;0.20;;;;;;;9.98;48.24;96399.63;5091507;28;20459;-53
2022/03/28 00:30:35;;;;;;;0.47;0.47;;;;;;;10.01;48.12;96404.44;5091590;28;20417;-54
2022/03/28 00:33:04;;;;;;;0.30;0.30;;;;;;;9.98;48.06;96403.06;5092018;28;20494;-54
2022/03/28 00:35:33;;;;;;;0.30;0.20;;;;;;;9.98;48.65;96402.25;5091973;28;20539;-53
2022/03/28 00:38:01;;;;;;;0.40;0.30;;;;;;;9.83;48.81;96408.09;5091680;28;20429;-53
2022/03/28 00:40:31;;;;;;;0.70;0.70;;;;;;;9.30;50.76;96402.31;5091693;28;20456;-52
2022/03/28 00:43:01;;;;;;;0.30;0.30;;;;;;;8.93;52.95;96401.78;5091182;28;20432;-52
2022/03/28 00:45:31;;;;;;;0.30;0.30;;;;;;;8.66;54.00;96400.69;5091563;28;20460;-53
2022/03/28 00:48:01;;;;;;;1.27;0.30;;;;;;;8.33;56.10;96388.03;5091554;28;20776;-52
2022/03/28 00:50:31;;;;;;;0.30;0.20;;;;;;;8.39;57.67;96395.06;5091247;28;20438;-52
2022/03/28 00:53:01;;;;;;;0.30;0.20;;;;;;;8.67;56.53;96389.91;5091568;28;20425;-54
2022/03/28 00:55:29;;;;;;;0.30;0.20;;;;;;;9.05;54.60;96388.56;5091706;28;20500;-53
2022/03/28 00:57:58;;;;;;;0.30;0.20;;;;;;;9.30;52.90;96383.78;5091839;28;20448;-53
2022/03/28 01:00:26;;;;;;;0.40;0.30;;;;;;;9.45;51.51;96374.31;5094775;28;20932;-53
2022/03/28 01:02:57;;;;;;;0.30;0.20;;;;;;;9.47;51.21;96360.84;5095370;28;20464;-53
2022/03/28 01:05:28;;;;;;;0.40;0.30;;;;;;;9.35;51.39;96368.03;5095226;28;20428;-54
2022/03/28 01:07:56;;;;;;;0.47;0.30;;;;;;;9.20;51.23;96383.59;5095391;28;20503;-54
2022/03/28 01:10:26;;;;;;;0.30;0.20;;;;;;;9.34;50.23;96371.69;5095096;28;20436;-53
2022/03/28 01:12:55;;;;;;;1.70;0.87;;;;;;;9.61;49.27;96362.16;5095715;28;20501;-53
2022/03/28 01:15:24;;;;;;;0.30;0.20;;;;;;;9.79;48.91;96375.19;5094958;28;20475;-54
2022/03/28 01:18:09;;;;;;;0.30;0.20;;;;;;;9.82;48.39;96374.72;5095377;28;20456;-53
2022/03/28 01:20:41;;;;;;;0.30;0.20;;;;;;;9.70;49.00;96363.38;5095152;28;20439;-53
2022/03/28 01:23:11;;;;;;;0.30;0.20;;;;;;;9.62;50.93;96363.75;5095316;28;20428;-53
2022/03/28 01:25:40;;;;;;;0.50;0.30;;;;;;;9.56;49.88;96367.38;5095246;28;20416;-53
2022/03/28 01:28:09;;;;;;;1.00;1.00;;;;;;;8.98;52.54;96372.81;5094839;28;20962;-54
2022/03/28 01:30:38;;;;;;;0.30;0.20;;;;;;;8.89;54.17;96372.38;5094571;28;20515;-53
2022/03/28 01:33:06;;;;;;;1.43;1.33;;;;;;;8.91;53.83;96374.78;5095135;28;20424;-53
2022/03/28 01:35:36;;;;;;;0.30;0.20;;;;;;;8.52;55.93;96380.81;5093772;28;20528;-53
2022/03/28 01:38:06;;;;;;;0.37;0.30;;;;;;;8.78;54.28;96383.78;5094640;28;20432;-53
2022/03/28 01:40:38;;;;;;;0.30;0.20;;;;;;;8.40;53.96;96301.53;5094898;28;20486;-53
2022/03/28 01:43:06;;;;;;;0.30;0.20;;;;;;;8.62;55.38;96373.94;5094557;28;20471;-53
2022/03/28 01:45:35;;;;;;;0.30;0.20;;;;;;;8.56;55.92;96382.75;5095034;28;20489;-53
2022/03/28 01:48:04;;;;;;;0.40;0.30;;;;;;;8.80;54.99;96376.41;5094486;28;20478;-53
2022/03/28 01:50:32;;;;;;;0.30;0.20;;;;;;;9.12;53.71;96383.94;5094465;28;20458;-53
2022/03/28 01:53:01;;;;;;;0.40;0.30;;;;;;;9.04;53.31;96373.72;5094410;28;21045;-53
2022/03/28 01:55:30;;;;;;;1.50;1.10;;;;;;;9.03;53.48;96375.59;5094700;28;20503;-53
2022/03/28 01:58:00;;;;;;;0.43;0.40;;;;;;;9.12;52.48;96374.19;5094492;28;20509;-53
2022/03/28 02:00:31;;;;;;;0.40;0.40;;;;;;;8.99;53.77;96376.28;5094542;28;20482;-53
2022/03/28 02:03:00;;;;;;;0.30;0.20;;;;;;;9.04;53.84;96369.25;5094134;28;20464;-53
2022/03/28 02:05:29;;;;;;;0.30;0.20;;;;;;;9.06;53.80;96375.09;5094222;28;20424;-53
2022/03/28 02:07:58;;;;;;;0.30;0.20;;;;;;;9.11;53.43;96372.56;5093831;28;20527;-52
2022/03/28 02:10:27;;;;;;;0.30;0.20;;;;;;;9.11;52.35;96372.56;5093956;28;20436;-53
2022/03/28 02:12:55;;;;;;;0.30;0.20;;;;;;;8.95;53.44;96376.72;5093965;28;20468;-53
2022/03/28 02:15:25;;;;;;;0.60;0.40;;;;;;;8.97;53.55;96373.06;5094278;28;20421;-53
2022/03/28 02:17:54;;;;;;;0.30;0.20;;;;;;;8.91;53.77;96359.75;5094068;28;20507;-53
2022/03/28 02:20:22;;;;;;;0.70;0.70;;;;;;;8.91;53.96;96369.50;5093996;28;20515;-53
2022/03/28 02:22:50;;;;;;;0.40;0.30;;;;;;;8.58;55.33;96378.03;5093856;28;20489;-53
2022/03/28 02:25:19;;;;;;;0.50;0.37;;;;;;;8.82;54.24;96374.38;5094042;28;20452;-52
2022/03/28 02:27:48;;;;;;;0.50;0.43;;;;;;;8.64;55.62;96374.50;5093569;28;20481;-53
2022/03/28 02:30:16;;;;;;;0.40;0.30;;;;;;;8.74;55.47;96372.06;5093664;28;20428;-53
2022/03/28 02:32:46;;;;;;;0.60;0.60;;;;;;;8.79;55.07;96368.72;5093820;28;20456;-53
2022/03/28 02:35:14;;;;;;;0.63;0.60;;;;;;;8.73;55.00;96369.63;5093638;28;20451;-53
2022/03/28 02:37:43;;;;;;;0.40;0.30;;;;;;;8.61;56.53;96372.31;5093410;28;20517;-53
2022/03/28 02:40:13;;;;;;;0.60;0.50;;;;;;;8.66;55.14;96377.69;5093679;28;20478;-52
2022/03/28 02:42:42;;;;;;;3.33;0.70;;;;;;;8.69;54.19;96384.38;5093410;28;20464;-52
2022/03/28 02:45:11;;;;;;;0.30;0.20;;;;;;;8.69;54.15;96379.06;5093323;28;20908;-53
2022/03/28 02:47:39;;;;;;;0.30;0.20;;;;;;;8.66;54.86;96385.63;5093288;28;20428;-53
2022/03/28 02:50:10;;;;;;;0.30;0.20;;;;;;;8.57;55.61;96386.22;5093616;28;20816;-53
2022/03/28 02:52:38;;;;;;;0.30;0.20;;;;;;;8.38;56.21;96377.59;5092107;28;20905;-53
2022/03/28 02:55:08;;;;;;;0.30;0.20;;;;;;;8.49;55.46;96389.19;5093272;28;20412;-53
2022/03/28 02:57:37;;;;;;;0.30;0.20;;;;;;;8.54;55.29;96378.75;5092994;28;20563;-53
2022/03/28 03:00:10;;;;;;;1.27;1.27;;;;;;;8.55;54.79;96383.78;5093124;28;21081;-53
2022/03/28 03:02:39;;;;;;;0.40;0.30;;;;;;;8.04;55.85;96317.59;5093125;28;20439;-53
2022/03/28 03:05:10;;;;;;;1.70;1.17;;;;;;;8.53;56.27;96388.50;5092967;28;20475;-53
2022/03/28 03:07:39;;;;;;;0.30;0.20;;;;;;;8.36;57.04;96384.94;5093105;28;20428;-53
2022/03/28 03:10:09;;;;;;;0.30;0.20;;;;;;;8.35;56.85;96378.03;5093014;28;20464;-53
2022/03/28 03:12:37;;;;;;;0.97;0.30;;;;;;;8.35;57.11;96375.41;5092847;28;20432;-53
2022/03/28 03:15:06;;;;;;;0.30;0.20;;;;;;;7.88;59.31;96390.34;5092803;28;20486;-53
2022/03/28 03:17:36;;;;;;;0.40;0.40;;;;;;;7.45;58.76;96303.50;5092633;28;20486;-53
2022/03/28 03:20:06;;;;;;;0.90;0.90;;;;;;;7.78;61.91;96389.28;5093029;28;20489;-53
2022/03/28 03:22:36;;;;;;;0.40;0.30;;;;;;;7.36;64.80;96397.13;5092101;28;20507;-53
2022/03/28 03:25:05;;;;;;;0.40;0.37;;;;;;;7.61;63.52;96397.81;5092646;28;20413;-53
2022/03/28 03:27:37;;;;;;;0.40;0.40;;;;;;;7.83;61.77;96389.41;5092597;28;20470;-53
2022/03/28 03:30:07;;;;;;;1.17;1.07;;;;;;;7.06;65.00;96340.94;5092053;28;20498;-53
2022/03/28 03:32:36;;;;;;;0.40;0.40;;;;;;;7.58;64.12;96393.00;5092498;28;20696;-53
2022/03/28 03:35:06;;;;;;;0.40;0.30;;;;;;;7.74;61.83;96391.59;5092449;28;20519;-53
2022/03/28 03:37:37;;;;;;;1.03;1.03;;;;;;;7.81;62.13;96397.56;5092246;28;20515;-53
2022/03/28 03:40:07;;;;;;;0.40;0.30;;;;;;;7.89;61.71;96399.06;5092277;28;20897;-53
2022/03/28 03:42:35;;;;;;;0.93;0.93;;;;;;;7.84;61.21;96402.41;5092097;28;20467;-53
2022/03/28 03:45:05;;;;;;;0.30;0.20;;;;;;;7.89;60.59;96399.06;5092291;28;20529;-53
2022/03/28 03:47:33;;;;;;;0.30;0.20;;;;;;;7.74;62.24;96402.13;5092433;28;20433;-53
2022/03/28 03:50:02;;;;;;;0.40;0.40;;;;;;;7.64;62.89;96407.13;5092500;28;20475;-52
2022/03/28 03:52:30;;;;;;;0.30;0.20;;;;;;;6.74;69.80;96408.00;5092674;28;20425;-53
2022/03/28 03:55:00;;;;;;;0.57;0.57;;;;;;;6.38;74.72;96414.81;5092076;28;20428;-52
2022/03/28 03:57:29;;;;;;;0.30;0.20;;;;;;;6.57;74.14;96415.69;5092175;28;20464;-53
2022/03/28 03:59:57;;;;;;;0.50;0.50;;;;;;;6.97;70.16;96416.06;5092543;28;20455;-53
2022/03/28 04:02:30;;;;;;;0.50;0.50;;;;;;;6.78;72.58;96417.88;5092299;28;20826;-54
2022/03/28 04:04:59;;;;;;;0.30;0.20;;;;;;;7.11;68.62;96414.91;5091501;28;21004;-54
2022/03/28 04:07:27;;;;;;;0.73;0.40;;;;;;;7.11;68.01;96420.16;5091145;28;20417;-54
2022/03/28 04:09:55;;;;;;;0.40;0.40;;;;;;;6.60;72.42;96424.97;5091273;28;20491;-54
2022/03/28 04:12:25;;;;;;;0.60;0.60;;;;;;;6.81;70.74;96416.66;5091885;28;20420;-54
2022/03/28 04:14:58;;;;;;;0.30;0.20;;;;;;;6.72;68.09;96373.19;5091390;28;21066;-54
2022/03/28 04:17:28;;;;;;;0.30;0.30;;;;;;;6.95;68.28;96426.03;5091614;28;20550;-54
2022/03/28 04:19:57;;;;;;;0.43;0.40;;;;;;;7.05;68.24;96426.34;5091700;28;20428;-54
2022/03/28 04:22:25;;;;;;;16.83;1.07;;;;;;;7.12;68.02;96424.41;5091784;28;20941;-54
2022/03/28 04:24:53;;;;;;;0.50;0.50;;;;;;;7.06;65.68;96417.38;5092006;28;20822;-54
2022/03/28 04:27:22;;;;;;;1.27;1.27;;;;;;;6.96;68.01;96425.81;5091654;28;20433;-53
2022/03/28 04:29:52;;;;;;;1.00;1.00;;;;;;;6.99;68.29;96432.47;5091568;28;20429;-53
2022/03/28 04:32:22;;;;;;;0.43;0.40;;;;;;;7.16;67.43;96436.13;5091476;28;20435;-53
2022/03/28 04:34:52;;;;;;;0.83;0.83;;;;;;;7.12;67.71;96429.69;5095695;28;20460;-53
2022/03/28 04:37:20;;;;;;;1.80;1.20;;;;;;;7.43;66.05;96442.72;5095450;28;20894;-53
2022/03/28 04:39:48;;;;;;;5.30;1.33;;;;;;;7.55;64.33;96440.13;5095370;28;20466;-53
2022/03/28 04:42:17;;;;;;;0.90;0.90;;;;;;;7.47;65.68;96440.44;5095494;28;20624;-53
2022/03/28 04:44:45;;;;;;;0.50;0.47;;;;;;;7.61;65.03;96439.25;5095493;28;20485;-52
2022/03/28 04:47:15;;;;;;;1.77;1.63;;;;;;;8.06;60.92;96445.72;5095347;28;20976;-53
2022/03/28 04:49:43;;;;;;;0.30;0.20;;;;;;;7.99;61.03;96441.56;5095569;28;20460;-52
2022/03/28 04:52:11;;;;;;;1.30;1.30;;;;;;;8.08;62.29;96445.47;5095420;28;20904;-52
2022/03/28 04:54:40;;;;;;;1.40;1.40;;;;;;;8.08;62.31;96458.69;5095268;28;20955;-52
2022/03/28 04:57:08;;;;;;;0.40;0.30;;;;;;;8.11;61.65;96437.13;5095275;28;20527;-52
2022/03/28 04:59:37;;;;;;;0.40;0.30;;;;;;;8.19;63.16;96436.78;5095187;28;21025;-53
2022/03/28 05:02:06;;;;;;;0.40;0.30;;;;;;;8.16;63.18;96442.53;5095314;28;20481;-52
2022/03/28 05:04:36;;;;;;;0.50;0.50;;;;;;;8.23;63.15;96443.22;5095411;28;20932;-52
2022/03/28 05:07:06;;;;;;;0.30;0.20;;;;;;;8.40;61.45;96446.84;5095148;28;20467;-53
2022/03/28 05:09:34;;;;;;;0.83;0.83;;;;;;;8.42;61.32;96446.63;5095043;28;20562;-53
2022/03/28 05:12:03;;;;;;;0.73;0.73;;;;;;;8.70;58.57;96449.41;5094830;28;20519;-53
2022/03/28 05:14:31;;;;;;;0.30;0.30;;;;;;;9.01;56.22;96449.03;5095320;28;20503;-54
2022/03/28 05:17:00;;;;;;;0.60;0.60;;;;;;;9.08;53.81;96448.94;5095268;28;20452;-53
2022/03/28 05:19:28;;;;;;;0.40;0.30;;;;;;;8.81;55.13;96446.75;5094921;28;20551;-53
2022/03/28 05:21:58;;;;;;;0.30;0.20;;;;;;;8.85;53.51;96442.59;5094787;28;20489;-53
2022/03/28 05:24:26;;;;;;;0.60;0.60;;;;;;;9.14;52.65;96450.63;5094827;28;20519;-53
2022/03/28 05:26:55;;;;;;;0.40;0.30;;;;;;;9.29;51.99;96448.31;5095141;28;20544;-53
2022/03/28 05:29:24;;;;;;;0.70;0.70;;;;;;;9.50;50.22;96445.06;5095172;28;20425;-53
2022/03/28 05:31:53;;;;;;;0.30;0.20;;;;;;;9.22;50.60;96443.16;5094929;28;20479;-54
2022/03/28 05:34:21;;;;;;;0.50;0.47;;;;;;;9.73;66.89;96446.81;5095075;28;20420;-52
2022/03/28 05:36:51;;;;;;;0.47;0.30;;;;;;;10.27;55.97;96445.44;5094919;28;20434;-52
2022/03/28 05:39:21;;;;;;;0.30;0.30;;;;;;;10.40;48.53;96445.16;5094874;28;21030;-52
2022/03/28 05:41:50;;;;;;;0.40;0.40;;;;;;;9.91;55.02;96451.94;5094465;28;21008;-52
2022/03/28 05:44:20;;;;;;;0.90;0.60;;;;;;;10.04;56.43;96455.06;5093838;28;20475;-52
2022/03/28 05:46:49;;;;;;;1.70;1.60;;;;;;;9.76;58.72;96455.09;5094666;28;20424;-51
2022/03/28 05:49:18;;;;;;;1.50;1.50;;;;;;;9.30;58.73;96378.50;5094608;28;20782;-51
2022/03/28 05:51:47;;;;;;;0.93;0.83;;;;;;;9.70;59.32;96460.53;5094259;28;20460;-52
2022/03/28 05:54:15;;;;;;;2.10;2.00;;;;;;;9.90;56.24;96451.13;5094219;28;20456;-52
2022/03/28 05:56:46;;;;;;;1.40;1.30;;;;;;;10.22;54.98;96454.09;5093790;28;20520;-52
2022/03/28 05:59:14;;;;;;;0.30;0.30;;;;;;;11.01;51.07;96441.53;5094107;28;20536;-52
2022/03/28 06:01:43;;;;;;;0.80;0.80;;;;;;;10.92;49.22;96446.47;5094074;28;20468;-52
2022/03/28 06:04:11;;;;;;;1.77;1.70;;;;;;;11.18;48.41;96451.06;5093858;28;20932;-51
2022/03/28 06:06:40;;;;;;;1.37;0.83;;;;;;;11.61;48.56;96454.81;5093820;28;20432;-52
2022/03/28 06:09:08;;;;;;;1.53;1.43;;;;;;;11.56;46.99;96452.13;5093788;28;20859;-51
2022/03/28 06:11:37;;;;;;;3.40;2.07;;;;;;;10.95;49.07;96451.31;5094459;28;20452;-52
2022/03/28 06:14:09;;;;;;;4.37;1.23;;;;;;;11.43;48.91;96454.06;5093480;28;20440;-51
2022/03/28 06:16:37;;;;;;;2.80;2.70;;;;;;;11.79;47.22;96446.56;5093633;28;20420;-51
2022/03/28 06:19:06;;;;;;;0.40;0.30;;;;;;;12.58;45.97;96458.22;5093799;28;21014;-52
2022/03/28 06:21:34;;;;;;;0.50;0.40;;;;;;;12.67;43.47;96409.63;5093529;28;20929;-51
2022/03/28 06:24:08;;;;;;;3.40;2.40;;;;;;;11.40;45.28;96451.91;5093548;28;20429;-51
2022/03/28 06:26:36;;;;;;;0.77;0.60;;;;;;;11.87;45.86;96460.19;5093776;28;20425;-51
2022/03/28 06:29:05;;;;;;;1.63;1.53;;;;;;;11.68;47.00;96458.09;5093390;28;20532;-51
2022/03/28 06:31:34;;;;;;;1.50;1.03;;;;;;;12.64;45.08;96442.06;5093438;28;20429;-51
2022/03/28 06:34:03;;;;;;;0.67;0.67;;;;;;;13.04;44.00;96448.72;5093361;28;20521;-51
2022/03/28 06:36:32;;;;;;;0.60;0.60;;;;;;;12.98;41.28;96447.09;5092469;28;20439;-51
2022/03/28 06:39:02;;;;;;;0.70;0.70;;;;;;;13.10;40.97;96448.53;5093611;28;20500;-51
2022/03/28 06:41:31;;;;;;;0.50;0.50;;;;;;;13.82;40.88;96450.47;5093329;28;20463;-50
2022/03/28 06:43:59;;;;;;;0.70;0.70;;;;;;;13.55;40.36;96445.31;5093255;28;20519;-50
2022/03/28 06:46:28;;;;;;;0.50;0.50;;;;;;;12.94;41.17;96446.78;5093265;28;20508;-50
2022/03/28 06:48:58;;;;;;;0.60;0.60;;;;;;;13.29;41.46;96456.88;5092056;28;20432;-50
2022/03/28 06:51:26;;;;;;;2.30;0.57;;;;;;;13.22;41.75;96443.81;5091949;28;20431;-50
2022/03/28 06:53:55;;;;;;;1.00;1.00;;;;;;;14.02;40.19;96447.84;5093122;28;20490;-50
2022/03/28 06:56:23;;;;;;;0.50;0.40;;;;;;;13.35;40.46;96445.22;5092641;28;20520;-51
2022/03/28 06:58:53;;;;;;;1.80;0.80;;;;;;;13.42;40.56;96440.44;5093078;28;20503;-51
2022/03/28 07:01:22;;;;;;;0.87;0.87;;;;;;;13.68;40.84;96444.84;5092744;28;20564;-50
2022/03/28 07:03:50;;;;;;;0.37;0.30;;;;;;;14.42;38.52;96439.16;5091875;28;20425;-50
2022/03/28 07:06:20;;;;;;;1.77;0.60;;;;;;;14.82;37.78;96441.84;5091785;28;20436;-49
2022/03/28 07:08:49;;;;;;;0.97;0.97;;;;;;;14.65;37.82;96430.63;5092533;28;20964;-50
2022/03/28 07:11:17;;;;;;;0.87;0.80;;;;;;;13.81;40.20;96435.53;5092677;28;20468;-50
2022/03/28 07:13:45;;;;;;;1.20;1.10;;;;;;;13.38;39.82;96424.16;5092672;28;20412;-50
2022/03/28 07:16:14;;;;;;;0.40;0.33;;;;;;;13.38;40.23;96423.41;5092571;28;20992;-50
2022/03/28 07:18:42;;;;;;;2.20;1.13;;;;;;;13.15;41.33;96440.59;5092451;28;20452;-50
2022/03/28 07:21:10;;;;;;;0.40;0.30;;;;;;;13.67;41.38;96445.88;5092496;28;20456;-50
2022/03/28 07:23:40;;;;;;;2.30;2.10;;;;;;;13.29;41.54;96443.56;5092497;28;20463;-50
2022/03/28 07:26:09;;;;;;;1.17;0.83;;;;;;;12.40;43.28;96439.97;5092409;28;20468;-51
2022/03/28 07:28:39;;;;;;;0.40;0.40;;;;;;;13.27;42.23;96445.69;5092205;28;20475;-50
2022/03/28 07:31:08;;;;;;;0.67;0.67;;;;;;;14.39;40.16;96437.03;5092301;28;20448;-50
2022/03/28 07:33:38;;;;;;;0.50;0.47;;;;;;;13.17;41.17;96438.47;5092592;28;20509;-50
2022/03/28 07:36:08;;;;;;;0.80;0.50;;;;;;;13.70;40.96;96444.56;5092288;28;20456;-50
2022/03/28 07:38:37;;;;;;;0.40;0.30;;;;;;;13.48;40.87;96446.59;5092266;28;20448;-50
2022/03/28 07:41:07;;;;;;;0.70;0.50;;;;;;;14.32;40.50;96447.16;5092064;28;20456;-51
2022/03/28 07:43:35;;;;;;;1.80;0.40;;;;;;;13.61;40.63;96446.91;5091987;28;20517;-51
2022/03/28 07:46:04;;;;;;;0.60;0.60;;;;;;;12.81;42.26;96444.56;5091710;28;20527;-51
2022/03/28 07:48:32;;;;;;;0.87;0.87;;;;;;;12.98;42.49;96455.88;5092067;28;20429;-51
2022/03/28 07:51:01;;;;;;;2.20;0.50;;;;;;;13.19;42.64;96449.66;5091948;28;20467;-51
2022/03/28 07:53:29;;;;;;;0.90;0.83;;;;;;;13.78;41.55;96450.19;5091725;28;20522;-52
2022/03/28 07:55:58;;;;;;;0.67;0.63;;;;;;;14.86;39.65;96439.41;5091916;28;21058;-52
2022/03/28 07:58:29;;;;;;;0.50;0.50;;;;;;;15.16;38.10;96439.38;5092121;28;20432;-52
2022/03/28 08:00:58;;;;;;;0.50;0.50;;;;;;;15.51;36.96;96425.94;5091752;28;20537;-52
2022/03/28 08:03:27;;;;;;;2.43;1.67;;;;;;;14.77;38.18;96425.81;5091987;28;20850;-52
2022/03/28 08:05:55;;;;;;;1.20;1.10;;;;;;;14.54;37.59;96429.84;5092089;28;20493;-53
2022/03/28 08:08:24;;;;;;;1.43;1.43;;;;;;;14.58;37.68;96427.41;5091278;28;20517;-53
2022/03/28 08:10:52;;;;;;;0.60;0.60;;;;;;;14.59;37.50;96429.84;5091949;28;20512;-53
2022/03/28 08:13:21;;;;;;;2.10;0.70;;;;;;;15.15;36.87;96427.09;5091804;28;20511;-53
2022/03/28 08:15:51;;;;;;;0.40;0.40;;;;;;;14.92;37.23;96428.47;5091995;28;20837;-53
2022/03/28 08:18:19;;;;;;;0.57;0.43;;;;;;;15.18;37.42;96413.19;5092055;28;20432;-53
2022/03/28 08:20:48;;;;;;;1.50;1.10;;;;;;;15.07;36.79;96411.63;5091349;28;20517;-53
2022/03/28 08:23:19;;;;;;;0.50;0.50;;;;;;;15.44;36.09;96401.34;5091586;28;20780;-53
2022/03/28 08:25:48;;;;;;;0.70;0.63;;;;;;;16.07;36.81;96402.41;5091924;28;20490;-53
2022/03/28 08:28:17;;;;;;;0.50;0.50;;;;;;;15.81;35.03;96401.75;5091494;28;20519;-53
2022/03/28 08:30:45;;;;;;;0.80;0.80;;;;;;;15.93;35.37;96392.59;5091489;28;20459;-54
2022/03/28 08:33:15;;;;;;;1.17;1.07;;;;;;;16.00;34.78;96388.53;5091519;28;20527;-54
2022/03/28 08:35:43;;;;;;;1.27;1.27;;;;;;;16.01;35.02;96384.81;5091444;28;20436;-53
2022/03/28 08:38:12;;;;;;;1.53;1.13;;;;;;;16.05;34.01;96385.84;5091673;28;20432;-54
2022/03/28 08:40:42;;;;;;;2.97;0.70;;;;;;;15.93;33.81;96388.06;5091285;28;20460;-54
2022/03/28 08:43:10;;;;;;;0.70;0.60;;;;;;;16.61;34.31;96375.53;5091150;28;20527;-54
2022/03/28 08:45:41;;;;;;;0.50;0.47;;;;;;;17.23;33.48;96379.22;5091407;28;20516;-55
2022/03/28 08:48:13;;;;;;;5.23;0.50;;;;;;;17.05;33.10;96370.81;5091375;28;20460;-56
2022/03/28 08:50:45;;;;;;;0.60;0.40;;;;;;;17.60;31.76;96364.06;5091412;28;20432;-56
2022/03/28 08:53:14;;;;;;;1.13;1.13;;;;;;;16.94;31.49;96366.66;5091415;28;20963;-56
2022/03/28 08:55:45;;;;;;;1.33;1.23;;;;;;;16.68;32.07;96357.28;5091646;28;20489;-56
2022/03/28 08:58:14;;;;;;;0.40;0.30;;;;;;;17.84;30.94;96352.47;5091406;28;20459;-55
2022/03/28 09:00:43;;;;;;;0.50;0.40;;;;;;;17.21;30.96;96355.38;5091327;28;20851;-55
2022/03/28 09:03:12;;;;;;;0.40;0.30;;;;;;;17.31;31.54;96349.91;5091561;28;20432;-56
2022/03/28 09:05:47;;;;;;;0.60;0.53;;;;;;;17.26;31.70;96303.59;5091258;28;20478;-55
2022/03/28 09:08:17;;;;;;;0.77;0.77;;;;;;;16.93;31.65;96349.00;5090948;28;21049;-54
2022/03/28 09:10:47;;;;;;;0.63;0.60;;;;;;;17.01;31.67;96351.06;5091174;28;20432;-55
2022/03/28 09:13:43;;;;;;;0.50;0.33;;;;;;;17.80;31.55;96332.69;5091191;28;20417;-55
2022/03/28 09:16:19;;;;;;;1.03;1.03;;;;;;;16.56;31.38;96240.97;5090834;28;20425;-55
2022/03/28 09:18:56;;;;;;;1.17;0.63;;;;;;;17.61;31.83;96338.03;5091006;28;20886;-54
2022/03/28 09:21:25;;;;;;;0.40;0.30;;;;;;;17.60;31.10;96331.88;5094236;28;20551;-54
2022/03/28 09:23:55;;;;;;;1.03;1.03;;;;;;;17.93;30.27;96324.72;5095052;28;20468;-54
2022/03/28 09:26:26;;;;;;;0.97;0.97;;;;;;;16.96;31.78;96334.22;5094490;28;20478;-54
2022/03/28 09:28:56;;;;;;;0.50;0.40;;;;;;;17.17;31.89;96327.56;5095133;28;20502;-54
2022/03/28 09:31:27;;;;;;;0.60;0.60;;;;;;;17.86;31.17;96315.44;5093975;28;20486;-54
2022/03/28 09:34:06;;;;;;;0.43;0.40;;;;;;;18.52;30.31;96312.53;5094991;28;20445;-54
2022/03/28 09:36:43;;;;;;;1.20;1.17;;;;;;;18.59;29.73;96296.84;5094966;28;20432;-54
2022/03/28 09:39:17;;;;;;;0.60;0.40;;;;;;;17.55;30.60;96312.38;5094687;28;20428;-54
2022/03/28 09:41:48;;;;;;;0.50;0.40;;;;;;;17.89;31.04;96298.75;5094313;28;20471;-54
2022/03/28 09:44:16;;;;;;;0.50;0.50;;;;;;;18.52;31.68;96304.50;5094332;28;20972;-54
2022/03/28 09:46:45;;;;;;;0.50;0.37;;;;;;;19.26;29.47;96293.38;5094349;28;20429;-54
2022/03/28 09:49:24;;;;;;;0.53;0.50;;;;;;;18.73;30.23;96285.03;5094263;28;20483;-55
2022/03/28 09:52:04;;;;;;;2.73;1.23;;;;;;;18.33;31.17;96288.41;5094641;28;20440;-55
2022/03/28 09:54:46;;;;;;;0.90;0.73;;;;;;;18.23;30.48;96275.16;5094572;28;20432;-55
2022/03/28 09:57:18;;;;;;;0.50;0.43;;;;;;;18.26;30.29;96259.25;5094319;28;20469;-55
2022/03/28 09:59:46;;;;;;;0.67;0.67;;;;;;;18.15;30.44;96279.28;5094083;28;20444;-55
2022/03/28 10:02:16;;;;;;;1.07;0.80;;;;;;;18.09;30.03;96277.78;5094392;28;20496;-55
2022/03/28 10:04:47;;;;;;;0.60;0.60;;;;;;;18.13;29.92;96269.94;5094277;28;20489;-55
2022/03/28 10:07:15;;;;;;;0.50;0.30;;;;;;;19.18;29.15;96264.50;5093990;28;20464;-55
2022/03/28 10:09:45;;;;;;;0.97;0.97;;;;;;;18.14;29.36;96250.09;5093874;28;20533;-54
2022/03/28 10:12:14;;;;;;;0.60;0.60;;;;;;;17.98;29.88;96246.06;5094275;28;20494;-55
2022/03/28 10:14:44;;;;;;;0.70;0.50;;;;;;;18.05;29.59;96241.91;5093893;28;20477;-55
2022/03/28 10:17:12;;;;;;;1.60;0.60;;;;;;;18.13;29.63;96235.06;5093931;28;20873;-55
2022/03/28 10:19:41;;;;;;;1.17;0.80;;;;;;;18.22;29.60;96231.41;5093804;28;20428;-55
2022/03/28 10:22:25;;;;;;;0.60;0.60;;;;;;;18.69;28.93;96229.53;5093327;28;21034;-55
2022/03/28 10:24:58;;;;;;;0.87;0.50;;;;;;;19.52;28.48;96224.56;5093707;28;20462;-55
2022/03/28 10:27:28;;;;;;;0.40;0.30;;;;;;;19.49;28.59;96222.47;5093536;28;20519;-56
2022/03/28 10:30:10;;;;;;;0.70;0.70;;;;;;;19.01;28.38;96213.28;5093373;28;20432;-55
2022/03/28 10:32:39;;;;;;;0.50;0.50;;;;;;;18.76;28.19;96219.97;5093558;28;20826;-56
2022/03/28 10:35:09;;;;;;;0.50;0.50;;;;;;;18.82;27.88;96140.88;5093611;28;20421;-56
2022/03/28 10:37:39;;;;;;;1.00;1.00;;;;;;;19.68;28.07;96210.78;5093521;28;20428;-56
2022/03/28 10:40:31;;;;;;;7.50;0.57;;;;;;;19.23;28.03;96209.84;5093551;28;20474;-56
2022/03/28 10:43:06;;;;;;;0.83;0.57;;;;;;;18.92;29.09;96207.81;5090835;28;20451;-56
2022/03/28 10:45:47;;;;;;;0.60;0.40;;;;;;;18.76;29.38;96198.47;5093388;28;20860;-56
2022/03/28 10:48:16;;;;;;;0.50;0.47;;;;;;;18.72;28.31;96192.09;5093383;28;20432;-56
2022/03/28 10:50:51;;;;;;;0.97;0.70;;;;;;;18.32;28.81;96192.84;5093545;28;20965;-56
2022/03/28 10:53:29;;;;;;;0.80;0.80;;;;;;;18.03;29.24;96189.63;5092394;28;20428;-56
2022/03/28 10:56:00;;;;;;;1.27;1.17;;;;;;;17.80;29.55;96182.50;5093102;28;20424;-56
2022/03/28 10:58:31;;;;;;;2.50;1.07;;;;;;;15.22;29.81;95797.34;5093144;28;20425;-56
2022/03/28 11:01:31;;;;;;;1.17;1.10;;;;;;;17.47;30.15;96177.09;5093080;28;20476;-56
2022/03/28 11:04:02;;;;;;;0.90;0.90;;;;;;;17.82;29.49;96156.19;5093226;28;20420;-56
2022/03/28 11:07:00;;;;;;;0.80;0.67;;;;;;;18.37;29.26;96160.53;5091991;28;20437;-55
2022/03/28 11:09:44;;;;;;;0.90;0.60;;;;;;;18.05;29.09;96102.41;5092596;28;20472;-55
2022/03/28 11:12:16;;;;;;;0.90;0.80;;;;;;;18.93;29.72;96157.56;5092771;28;20551;-55
2022/03/28 11:14:46;;;;;;;1.10;1.00;;;;;;;18.41;29.69;96153.50;5093101;28;20428;-56
2022/03/28 11:17:17;;;;;;;0.73;0.70;;;;;;;18.34;30.26;96147.75;5092760;28;20432;-55
2022/03/28 11:20:08;;;;;;;0.60;0.53;;;;;;;19.09;30.31;96148.09;5092605;28;20473;-57
2022/03/28 11:22:51;;;;;;;1.33;1.23;;;;;;;19.34;28.86;96141.34;5092001;28;20566;-57
2022/03/28 11:25:47;;;;;;;1.33;0.90;;;;;;;19.28;29.40;96132.59;5092913;28;20416;-58
2022/03/28 11:28:38;;;;;;;2.23;0.60;;;;;;;19.45;27.91;96140.03;5091359;28;20432;-58
2022/03/28 11:31:10;;;;;;;0.47;0.30;;;;;;;19.58;27.85;96126.53;5092238;28;20456;-58
2022/03/28 11:33:40;;;;;;;0.70;0.50;;;;;;;18.68;28.49;96125.88;5092408;28;20513;-57
2022/03/28 11:36:11;;;;;;;0.40;0.40;;;;;;;18.66;28.96;96126.19;5091384;28;20868;-57
2022/03/28 11:38:45;;;;;;;0.73;0.73;;;;;;;18.90;28.81;96120.56;5092127;28;20443;-57
2022/03/28 11:41:14;;;;;;;0.90;0.87;;;;;;;18.92;28.73;96116.47;5092336;28;20470;-57
2022/03/28 11:43:45;;;;;;;0.50;0.50;;;;;;;19.71;28.40;96111.41;5091247;28;20420;-56
2022/03/28 11:46:16;;;;;;;3.70;0.60;;;;;;;19.11;28.27;96107.47;5091964;28;20429;-56
2022/03/28 11:48:56;;;;;;;0.60;0.50;;;;;;;19.01;28.94;96095.88;5092396;28;20442;-56
2022/03/28 11:51:26;;;;;;;1.50;1.40;;;;;;;18.58;29.46;96096.53;5090881;28;20446;-56